Time;durP1;ratioP1;P1;durP2;ratioP2;P2;SDS_P1;SDS_P2;PMS_P1;PMS_P2;Temp;Humidity;BMP_temperature;BMP_pressure;BME280_temperature;BME280_humidity;BME280_pressure;Samples;Min_cycle;Max_cycle;Signal;HPM_P1;HPM_P2
2022/07/07 00:01:09;;;;;;;2.23;1.23;;;14.70;99.90;;;;;;5110488;28;20367;-82
2022/07/07 00:03:34;;;;;;;2.92;0.90;;;14.80;99.90;;;;;;5096043;27;20853;-83
2022/07/07 00:06:00;;;;;;;2.27;1.40;;;14.80;99.90;;;;;;5101355;28;20370;-83
2022/07/07 00:08:26;;;;;;;4.80;1.10;;;14.90;99.90;;;;;;5106623;28;20381;-83
2022/07/07 00:10:52;;;;;;;2.88;1.00;;;15.00;99.90;;;;;;5104808;27;20414;-83
2022/07/07 00:13:18;;;;;;;2.83;1.10;;;15.10;99.90;;;;;;5091456;28;20380;-83
2022/07/07 00:15:45;;;;;;;2.17;1.10;;;15.20;99.90;;;;;;5098983;28;20387;-83
2022/07/07 00:18:11;;;;;;;3.42;1.23;;;15.20;99.90;;;;;;5098356;28;20377;-83
2022/07/07 00:20:37;;;;;;;3.15;1.25;;;15.30;99.90;;;;;;5097316;28;20362;-81
2022/07/07 00:23:03;;;;;;;3.55;1.15;;;15.20;99.90;;;;;;5100592;28;20369;-83
2022/07/07 00:25:29;;;;;;;2.97;1.17;;;15.20;99.90;;;;;;5091290;28;20396;-83
2022/07/07 00:27:55;;;;;;;1.70;1.10;;;15.20;99.90;;;;;;5096187;28;20374;-83
2022/07/07 00:30:20;;;;;;;3.72;1.08;;;15.30;99.90;;;;;;5098054;28;20402;-83
2022/07/07 00:32:46;;;;;;;3.08;1.27;;;15.30;99.90;;;;;;5095597;28;20895;-83
2022/07/07 00:35:12;;;;;;;3.50;1.20;;;15.30;99.90;;;;;;5098758;28;20487;-82
2022/07/07 00:37:38;;;;;;;2.60;1.10;;;15.40;99.90;;;;;;5104058;28;20399;-82
2022/07/07 00:40:04;;;;;;;3.20;1.30;;;15.50;99.90;;;;;;5109870;27;20382;-82
2022/07/07 00:42:30;;;;;;;4.90;1.30;;;15.40;99.90;;;;;;5108669;28;20375;-83
2022/07/07 00:44:56;;;;;;;2.50;1.30;;;15.50;99.90;;;;;;5109036;28;20532;-82
2022/07/07 00:47:22;;;;;;;3.78;1.38;;;15.50;99.90;;;;;;5110529;27;20394;-82
2022/07/07 00:49:47;;;;;;;2.50;1.20;;;15.50;99.90;;;;;;5113569;28;20842;-84
2022/07/07 00:52:13;;;;;;;3.53;1.30;;;15.50;99.90;;;;;;5109614;28;20386;-84
2022/07/07 00:54:39;;;;;;;2.92;1.20;;;15.50;99.90;;;;;;5109949;28;20405;-83
2022/07/07 00:57:06;;;;;;;4.70;1.20;;;15.40;99.90;;;;;;5109717;28;20409;-84
2022/07/07 00:59:34;;;;;;;3.03;1.30;;;15.40;99.90;;;;;;5109655;28;20371;-84
2022/07/07 01:02:01;;;;;;;3.58;1.40;;;15.30;99.90;;;;;;5111081;28;20367;-84
2022/07/07 01:04:27;;;;;;;2.63;1.20;;;15.30;99.90;;;;;;5111905;28;20375;-82
2022/07/07 01:06:53;;;;;;;2.00;1.10;;;15.20;99.90;;;;;;5108911;28;20741;-83
2022/07/07 01:09:19;;;;;;;8.57;1.60;;;15.20;99.90;;;;;;5109885;28;20373;-82
2022/07/07 01:11:56;;;;;;;4.22;1.50;;;15.10;99.90;;;;;;5109457;27;20405;-82
2022/07/07 01:14:23;;;;;;;3.28;1.42;;;15.10;99.90;;;;;;5108254;28;20456;-82
2022/07/07 01:16:50;;;;;;;3.03;1.60;;;15.10;99.90;;;;;;5109236;28;20370;-84
2022/07/07 01:19:17;;;;;;;5.65;1.50;;;15.10;99.90;;;;;;5109804;28;20403;-81
2022/07/07 01:22:12;;;;;;;5.60;1.60;;;15.10;99.90;;;;;;5109617;28;20378;-81
2022/07/07 01:24:38;;;;;;;2.78;1.50;;;15.00;99.90;;;;;;5109266;27;20913;-81
2022/07/07 01:27:16;;;;;;;3.83;1.63;;;14.90;99.90;;;;;;5110309;28;20370;-80
2022/07/07 01:29:52;;;;;;;4.43;1.80;;;14.80;99.90;;;;;;5111386;28;20383;-80
2022/07/07 01:32:17;;;;;;;2.63;1.80;;;14.70;99.90;;;;;;5112696;28;20381;-81
2022/07/07 01:34:45;;;;;;;4.23;1.63;;;14.70;99.90;;;;;;5111425;28;20470;-79
2022/07/07 01:37:11;;;;;;;3.72;1.90;;;14.70;99.90;;;;;;5113515;28;20374;-80
2022/07/07 01:39:38;;;;;;;3.63;1.70;;;14.70;99.90;;;;;;5112913;28;20740;-80
2022/07/07 01:42:04;;;;;;;4.45;1.83;;;14.60;99.90;;;;;;5114154;27;20968;-82
2022/07/07 01:44:34;;;;;;;3.63;1.75;;;14.50;99.90;;;;;;5113121;28;20358;-81
2022/07/07 01:47:00;;;;;;;2.65;1.85;;;14.50;99.90;;;;;;5114700;28;20359;-81
2022/07/07 01:49:29;;;;;;;3.63;1.80;;;14.50;99.90;;;;;;5113089;28;20462;-81
2022/07/07 01:51:54;;;;;;;3.90;2.03;;;14.40;99.90;;;;;;5111383;28;20481;-82
2022/07/07 01:54:20;;;;;;;3.90;2.10;;;14.40;99.90;;;;;;5113744;28;20577;-81
2022/07/07 01:56:46;;;;;;;6.07;2.23;;;14.40;99.90;;;;;;5111849;28;20389;-81
2022/07/07 01:59:12;;;;;;;3.95;2.10;;;14.40;99.90;;;;;;5112520;28;20374;-81
2022/07/07 02:01:38;;;;;;;3.47;2.00;;;14.30;99.90;;;;;;5111438;28;20451;-81
2022/07/07 02:04:04;;;;;;;4.90;2.05;;;14.30;99.90;;;;;;5113734;28;20375;-81
2022/07/07 02:06:30;;;;;;;4.55;2.00;;;14.20;99.90;;;;;;5113286;28;20403;-81
2022/07/07 02:08:56;;;;;;;4.05;1.98;;;14.30;99.90;;;;;;5113187;28;20479;-81
2022/07/07 02:11:22;;;;;;;5.03;2.50;;;14.30;99.90;;;;;;5112766;27;20485;-81
2022/07/07 02:13:50;;;;;;;4.78;2.22;;;14.40;99.90;;;;;;5113076;28;20872;-81
2022/07/07 02:16:18;;;;;;;4.13;2.15;;;14.30;99.90;;;;;;5112966;28;20374;-81
2022/07/07 02:18:46;;;;;;;5.30;2.35;;;14.30;99.90;;;;;;5111862;28;20694;-81
2022/07/07 02:21:14;;;;;;;5.90;2.43;;;14.40;99.90;;;;;;5112827;28;20363;-81
2022/07/07 02:23:42;;;;;;;5.20;2.38;;;14.40;99.90;;;;;;5112611;28;20977;-80
2022/07/07 02:26:08;;;;;;;4.63;2.10;;;14.40;99.90;;;;;;5113133;27;20429;-81
2022/07/07 02:28:34;;;;;;;2.63;2.20;;;14.30;99.90;;;;;;5111630;28;20896;-82
2022/07/07 02:31:00;;;;;;;6.30;2.30;;;14.30;99.90;;;;;;5111191;28;20401;-81
2022/07/07 02:33:26;;;;;;;5.10;2.60;;;14.30;99.90;;;;;;5112968;28;20383;-81
2022/07/07 02:35:53;;;;;;;4.88;2.58;;;14.30;99.90;;;;;;5113190;28;20416;-81
2022/07/07 02:38:19;;;;;;;4.75;2.60;;;14.30;99.90;;;;;;5112966;28;20375;-81
2022/07/07 02:40:45;;;;;;;5.53;2.45;;;14.20;99.90;;;;;;5111254;28;20913;-81
2022/07/07 02:43:12;;;;;;;4.75;2.55;;;14.50;99.90;;;;;;5111231;28;20406;-81
2022/07/07 02:45:42;;;;;;;5.03;2.58;;;14.90;99.90;;;;;;5111480;28;20782;-82
2022/07/07 02:48:09;;;;;;;4.57;2.90;;;14.30;99.90;;;;;;5112743;27;20457;-81
2022/07/07 02:50:35;;;;;;;6.38;3.08;;;14.30;99.90;;;;;;5110450;28;20406;-80
2022/07/07 02:53:01;;;;;;;3.85;2.67;;;14.20;99.90;;;;;;5111440;28;20387;-82
2022/07/07 02:55:27;;;;;;;6.07;3.30;;;14.30;99.90;;;;;;5112759;28;20405;-81
2022/07/07 02:57:53;;;;;;;5.90;3.13;;;14.30;99.90;;;;;;5111878;28;20398;-80
2022/07/07 03:00:18;;;;;;;4.87;3.23;;;13.60;99.90;;;;;;5113051;28;20435;-81
2022/07/07 03:02:44;;;;;;;4.50;3.22;;;14.20;99.90;;;;;;5112746;28;20899;-80
2022/07/07 03:05:13;;;;;;;4.60;3.30;;;14.20;99.90;;;;;;5113586;28;20427;-81
2022/07/07 03:07:39;;;;;;;5.75;3.47;;;14.30;99.90;;;;;;5111908;27;20378;-80
2022/07/07 03:10:06;;;;;;;4.43;3.23;;;14.30;99.90;;;;;;5105217;28;20401;-81
2022/07/07 03:12:33;;;;;;;6.97;3.53;;;13.90;99.90;;;;;;5112294;28;20375;-80
2022/07/07 03:14:58;;;;;;;4.50;3.13;;;14.30;99.90;;;;;;5111400;28;20387;-79
2022/07/07 03:17:24;;;;;;;4.47;3.33;;;14.70;99.90;;;;;;5113488;28;20363;-80
2022/07/07 03:19:50;;;;;;;5.90;3.25;;;14.40;99.90;;;;;;5113051;28;20466;-81
2022/07/07 03:22:15;;;;;;;7.40;3.88;;;14.50;99.90;;;;;;5112230;28;20369;-80
2022/07/07 03:24:41;;;;;;;4.97;3.60;;;14.40;99.90;;;;;;5112883;28;20932;-80
2022/07/07 03:27:07;;;;;;;5.78;4.28;;;14.60;99.90;;;;;;5111199;28;20904;-80
2022/07/07 03:29:33;;;;;;;7.18;4.10;;;14.40;99.90;;;;;;5112256;28;20398;-80
2022/07/07 03:31:59;;;;;;;5.70;3.97;;;14.30;99.90;;;;;;5111298;28;20522;-82
2022/07/07 03:34:25;;;;;;;5.60;3.95;;;14.30;99.90;;;;;;5111412;28;20542;-80
2022/07/07 03:36:50;;;;;;;6.90;4.00;;;14.20;99.90;;;;;;5111647;28;20951;-81
2022/07/07 03:39:16;;;;;;;5.38;4.00;;;14.30;99.90;;;;;;5111529;28;20363;-80
2022/07/07 03:41:41;;;;;;;4.93;3.97;;;14.30;99.90;;;;;;5110336;27;20413;-81
2022/07/07 03:44:07;;;;;;;5.53;3.78;;;14.40;99.90;;;;;;5111509;28;20374;-82
2022/07/07 03:46:33;;;;;;;5.68;4.20;;;14.30;99.90;;;;;;5111539;28;20363;-81
2022/07/07 03:48:59;;;;;;;8.00;4.60;;;14.20;99.90;;;;;;5111683;28;20378;-80
2022/07/07 03:51:24;;;;;;;5.10;4.35;;;14.30;99.90;;;;;;5110571;27;20879;-81
2022/07/07 03:53:50;;;;;;;5.80;4.22;;;14.30;99.90;;;;;;5111581;28;20382;-80
2022/07/07 03:56:16;;;;;;;5.90;4.70;;;14.30;99.90;;;;;;5111287;28;20860;-80
2022/07/07 03:58:41;;;;;;;7.10;4.57;;;14.30;99.90;;;;;;5110799;28;20457;-81
2022/07/07 04:01:07;;;;;;;6.20;4.47;;;14.30;99.90;;;;;;5111278;28;20371;-80
2022/07/07 04:03:33;;;;;;;6.50;4.33;;;14.30;99.90;;;;;;5111923;28;20367;-80
2022/07/07 04:05:59;;;;;;;6.70;4.68;;;14.40;99.90;;;;;;5111775;27;20435;-80
2022/07/07 04:08:24;;;;;;;6.23;4.83;;;14.40;99.90;;;;;;5109564;28;20379;-80
2022/07/07 04:10:50;;;;;;;5.20;4.70;;;14.30;99.90;;;;;;5111213;28;20822;-80
2022/07/07 04:13:15;;;;;;;6.68;4.68;;;14.30;99.90;;;;;;5111470;27;20883;-80
2022/07/07 04:15:41;;;;;;;7.00;4.63;;;14.40;99.90;;;;;;5111758;28;20382;-82
2022/07/07 04:18:07;;;;;;;5.30;4.80;;;14.30;99.90;;;;;;5112074;28;20378;-80
2022/07/07 04:20:33;;;;;;;9.85;5.45;;;14.20;99.90;;;;;;5109231;28;20371;-81
2022/07/07 04:22:59;;;;;;;6.27;5.37;;;14.20;99.90;;;;;;5111162;28;20371;-81
2022/07/07 04:25:24;;;;;;;6.32;5.65;;;14.20;99.90;;;;;;5110744;28;20458;-81
2022/07/07 04:27:50;;;;;;;6.20;5.07;;;14.20;99.90;;;;;;5110293;27;20430;-81
2022/07/07 04:30:17;;;;;;;6.03;5.20;;;14.20;99.90;;;;;;5110990;28;20406;-80
2022/07/07 04:32:42;;;;;;;6.15;5.55;;;14.40;99.90;;;;;;5110033;28;20362;-81
2022/07/07 04:35:08;;;;;;;7.30;5.47;;;14.40;99.90;;;;;;5109471;28;20424;-82
2022/07/07 04:37:35;;;;;;;9.45;5.60;;;14.40;99.90;;;;;;5111298;28;20363;-80
2022/07/07 04:40:02;;;;;;;8.25;5.32;;;14.30;99.90;;;;;;5110756;28;20374;-82
2022/07/07 04:42:28;;;;;;;6.75;6.00;;;14.40;99.90;;;;;;5108648;28;20994;-81
2022/07/07 04:44:54;;;;;;;6.72;5.57;;;14.30;99.90;;;;;;5110414;28;20375;-82
2022/07/07 04:47:20;;;;;;;8.40;5.53;;;14.40;99.90;;;;;;5110791;28;20423;-82
2022/07/07 04:49:45;;;;;;;7.93;5.80;;;14.20;99.90;;;;;;5110390;28;20405;-80
2022/07/07 04:52:11;;;;;;;7.43;5.60;;;14.30;99.90;;;;;;5110216;28;20448;-81
2022/07/07 04:54:37;;;;;;;8.38;6.13;;;14.20;99.90;;;;;;5110727;28;20381;-83
2022/07/07 04:57:03;;;;;;;6.75;5.80;;;14.30;99.90;;;;;;5110318;27;20383;-82
2022/07/07 04:59:28;;;;;;;6.83;5.50;;;14.30;99.90;;;;;;5110976;28;20377;-82
2022/07/07 05:01:54;;;;;;;9.63;5.35;;;14.30;99.90;;;;;;5108290;28;20382;-80
2022/07/07 05:04:20;;;;;;;7.53;5.57;;;14.30;99.90;;;;;;5110044;28;20370;-80
2022/07/07 05:06:45;;;;;;;8.40;5.50;;;14.30;99.90;;;;;;5110138;28;20366;-81
2022/07/07 05:09:11;;;;;;;7.25;5.20;;;14.40;99.90;;;;;;5109695;28;20391;-82
2022/07/07 05:11:36;;;;;;;5.80;5.20;;;14.30;99.90;;;;;;5108550;28;20417;-82
2022/07/07 05:14:03;;;;;;;6.32;5.18;;;14.40;99.90;;;;;;5108052;28;20405;-83
2022/07/07 05:16:29;;;;;;;6.07;5.20;;;14.40;99.90;;;;;;5109978;28;20892;-81
2022/07/07 05:18:56;;;;;;;6.47;5.00;;;14.40;99.90;;;;;;5109688;28;20419;-81
2022/07/07 05:21:21;;;;;;;6.25;5.10;;;14.50;99.90;;;;;;5109468;28;20362;-81
2022/07/07 05:23:47;;;;;;;7.27;5.10;;;14.40;99.90;;;;;;5109809;28;20739;-81
2022/07/07 05:26:13;;;;;;;7.03;5.38;;;14.40;99.90;;;;;;5109786;28;20853;-81
2022/07/07 05:28:41;;;;;;;7.30;5.18;;;14.40;99.90;;;;;;5108569;28;20892;-81
2022/07/07 05:31:16;;;;;;;6.88;5.25;;;14.50;99.90;;;;;;5109829;28;20497;-82
2022/07/07 05:33:42;;;;;;;6.67;5.73;;;14.50;99.90;;;;;;5109748;28;20382;-83
2022/07/07 05:36:08;;;;;;;7.93;6.00;;;14.40;99.90;;;;;;5109770;28;20362;-83
2022/07/07 05:38:34;;;;;;;7.55;6.13;;;14.40;99.90;;;;;;5108729;28;20395;-82
2022/07/07 05:41:01;;;;;;;6.53;5.90;;;14.30;99.90;;;;;;5110018;28;20785;-82
2022/07/07 05:43:27;;;;;;;6.93;5.80;;;14.50;99.90;;;;;;5109509;27;20394;-82
2022/07/07 05:45:53;;;;;;;8.13;6.53;;;12.60;99.90;;;;;;5110194;28;20362;-82
2022/07/07 05:48:19;;;;;;;7.00;6.27;;;14.40;99.90;;;;;;5110966;28;20475;-83
2022/07/07 05:50:45;;;;;;;8.77;7.33;;;14.40;99.90;;;;;;5110108;28;20398;-81
2022/07/07 05:53:11;;;;;;;7.03;6.33;;;14.40;99.90;;;;;;5109837;28;20389;-84
2022/07/07 05:55:37;;;;;;;8.07;6.15;;;14.50;99.90;;;;;;5108651;28;20738;-81
2022/07/07 05:58:03;;;;;;;7.57;6.47;;;14.60;99.90;;;;;;5107982;28;21165;-83
2022/07/07 06:00:29;;;;;;;7.18;6.50;;;14.60;99.90;;;;;;5109706;28;20420;-81
2022/07/07 06:02:55;;;;;;;6.97;6.32;;;14.50;99.90;;;;;;5110636;28;20420;-84
2022/07/07 06:05:22;;;;;;;6.95;6.25;;;14.60;99.90;;;;;;5111955;28;20860;-81
2022/07/07 06:07:48;;;;;;;7.60;6.13;;;14.60;99.90;;;;;;5089564;28;20429;-81
2022/07/07 06:10:14;;;;;;;6.32;5.72;;;14.60;99.90;;;;;;5070397;28;20417;-81
2022/07/07 06:12:41;;;;;;;6.80;5.83;;;14.50;99.90;;;;;;5075616;28;20376;-79
2022/07/07 06:15:07;;;;;;;6.40;5.90;;;14.50;99.90;;;;;;5086456;28;20831;-81
2022/07/07 06:17:33;;;;;;;6.80;6.10;;;14.60;99.90;;;;;;5087773;28;20401;-81
2022/07/07 06:19:59;;;;;;;6.32;5.60;;;14.70;99.90;;;;;;5089517;28;20376;-81
2022/07/07 06:22:26;;;;;;;6.23;5.43;;;14.70;99.90;;;;;;5089260;28;20377;-82
2022/07/07 06:24:52;;;;;;;6.03;5.53;;;14.80;99.90;;;;;;5075369;28;20378;-82
2022/07/07 06:27:18;;;;;;;6.50;5.53;;;15.00;99.90;;;;;;5090266;28;20481;-82
2022/07/07 06:29:45;;;;;;;6.10;5.17;;;15.00;99.90;;;;;;5082676;28;20955;-81
2022/07/07 06:32:11;;;;;;;5.72;5.00;;;15.10;99.90;;;;;;5069178;28;20413;-82
2022/07/07 06:34:37;;;;;;;5.30;4.82;;;15.10;99.90;;;;;;5070842;28;20402;-80
2022/07/07 06:37:03;;;;;;;5.28;4.78;;;15.10;99.90;;;;;;5071398;28;20389;-83
2022/07/07 06:39:29;;;;;;;5.20;4.80;;;15.20;99.90;;;;;;5076815;28;20471;-82
2022/07/07 06:41:54;;;;;;;5.25;4.75;;;15.20;99.90;;;;;;5093155;28;20502;-80
2022/07/07 06:44:20;;;;;;;5.10;4.60;;;15.30;99.90;;;;;;5091727;28;20417;-82
2022/07/07 06:46:46;;;;;;;6.43;4.82;;;15.30;99.90;;;;;;5076915;28;20452;-82
2022/07/07 06:49:12;;;;;;;4.93;4.50;;;15.20;99.90;;;;;;5086065;28;20369;-82
2022/07/07 06:51:39;;;;;;;4.82;4.40;;;15.30;99.90;;;;;;5086666;28;20401;-82
2022/07/07 06:54:05;;;;;;;5.05;4.55;;;15.30;99.90;;;;;;5085619;28;20392;-81
2022/07/07 06:56:31;;;;;;;4.70;4.30;;;15.20;99.90;;;;;;5092189;28;20433;-81
2022/07/07 06:58:57;;;;;;;5.05;4.65;;;15.30;99.90;;;;;;5073775;28;20397;-80
2022/07/07 07:01:26;;;;;;;4.55;4.13;;;15.20;99.90;;;;;;5074121;28;20398;-80
2022/07/07 07:03:52;;;;;;;5.27;4.80;;;15.20;99.90;;;;;;5072185;28;21045;-81
2022/07/07 07:06:19;;;;;;;5.13;4.72;;;15.30;99.90;;;;;;5072112;28;20401;-81
2022/07/07 07:08:45;;;;;;;5.15;4.75;;;15.20;99.90;;;;;;5074681;28;20374;-80
2022/07/07 07:11:12;;;;;;;4.90;4.50;;;15.40;99.90;;;;;;5092591;28;20465;-81
2022/07/07 07:13:38;;;;;;;4.63;4.22;;;15.50;99.90;;;;;;5073859;28;20433;-81
2022/07/07 07:16:04;;;;;;;4.93;4.07;;;15.60;99.90;;;;;;5092064;28;20364;-80
2022/07/07 07:18:30;;;;;;;4.88;4.30;;;15.60;99.90;;;;;;5092571;28;20373;-81
2022/07/07 07:20:56;;;;;;;4.32;3.97;;;15.70;99.90;;;;;;5092997;28;20384;-81
2022/07/07 07:23:22;;;;;;;4.60;4.20;;;15.80;99.90;;;;;;5090980;28;20376;-82
2022/07/07 07:25:49;;;;;;;4.90;4.50;;;15.80;99.90;;;;;;5091541;28;20500;-83
2022/07/07 07:28:19;;;;;;;5.53;4.15;;;15.80;99.90;;;;;;5091410;28;20377;-82
2022/07/07 07:30:45;;;;;;;4.63;4.23;;;15.80;99.90;;;;;;5089619;28;20408;-82
2022/07/07 07:33:10;;;;;;;5.25;4.18;;;15.90;99.90;;;;;;5091946;28;20938;-81
2022/07/07 07:35:39;;;;;;;3.90;3.60;;;15.90;99.90;;;;;;5092719;28;20378;-82
2022/07/07 07:38:05;;;;;;;3.90;3.60;;;16.00;99.90;;;;;;5090746;28;20376;-83
2022/07/07 07:40:37;;;;;;;3.50;3.28;;;16.00;99.90;;;;;;5091098;28;20441;-80
2022/07/07 07:43:03;;;;;;;3.60;3.30;;;16.00;99.90;;;;;;5089661;28;20381;-81
2022/07/07 07:45:29;;;;;;;3.97;3.57;;;16.10;99.90;;;;;;5091772;28;20387;-81
2022/07/07 07:47:56;;;;;;;3.50;3.17;;;16.20;99.90;;;;;;5092681;28;20877;-80
2022/07/07 07:50:22;;;;;;;3.20;2.90;;;16.30;99.90;;;;;;5092218;28;20405;-81
2022/07/07 07:52:49;;;;;;;3.35;2.53;;;16.40;99.90;;;;;;5090118;28;20382;-80
2022/07/07 07:55:17;;;;;;;3.25;3.00;;;16.60;99.90;;;;;;5090183;28;20384;-81
2022/07/07 07:57:44;;;;;;;2.80;2.60;;;16.60;99.90;;;;;;5090003;28;20380;-81
2022/07/07 08:00:13;;;;;;;2.90;2.70;;;16.60;99.90;;;;;;5091351;28;20384;-83
2022/07/07 08:02:40;;;;;;;3.10;2.90;;;16.70;99.90;;;;;;5091550;28;20376;-82
2022/07/07 08:05:07;;;;;;;3.22;2.80;;;16.40;99.90;;;;;;5090451;28;20376;-81
2022/07/07 08:07:33;;;;;;;3.00;2.80;;;16.20;99.90;;;;;;5091035;28;20433;-80
2022/07/07 08:10:00;;;;;;;3.63;3.17;;;16.20;99.90;;;;;;5091828;28;20376;-84
2022/07/07 08:12:25;;;;;;;3.37;3.10;;;16.10;99.90;;;;;;5091167;28;20881;-81
2022/07/07 08:14:52;;;;;;;3.22;3.03;;;16.30;99.90;;;;;;5090878;28;20397;-80
2022/07/07 08:17:18;;;;;;;3.28;3.00;;;16.30;99.90;;;;;;5084281;28;20889;-82
2022/07/07 08:19:44;;;;;;;3.25;3.00;;;16.30;99.90;;;;;;5090881;28;20377;-81
2022/07/07 08:22:10;;;;;;;3.40;3.10;;;16.50;99.90;;;;;;5091177;28;20372;-82
2022/07/07 08:24:36;;;;;;;3.45;3.20;;;16.50;99.90;;;;;;5090545;28;20577;-82
2022/07/07 08:27:03;;;;;;;4.03;2.97;;;16.60;99.90;;;;;;5090465;28;20882;-81
2022/07/07 08:29:29;;;;;;;3.33;3.00;;;;;;;;;;5088162;28;20388;-82
2022/07/07 08:31:54;;;;;;;3.08;2.88;;;16.60;99.90;;;;;;5090450;28;20432;-82
2022/07/07 08:34:20;;;;;;;3.00;2.80;;;16.90;99.90;;;;;;5090071;28;21664;-81
2022/07/07 08:36:46;;;;;;;3.10;2.90;;;16.90;99.90;;;;;;5090604;28;20425;-82
2022/07/07 08:39:13;;;;;;;2.90;2.70;;;16.90;99.90;;;;;;5090901;28;20377;-81
2022/07/07 08:41:43;;;;;;;3.58;3.22;;;17.10;99.90;;;;;;5087166;28;20908;-82
2022/07/07 08:44:10;;;;;;;3.40;3.10;;;17.10;99.90;;;;;;5076577;28;20966;-84
2022/07/07 08:46:35;;;;;;;3.85;3.00;;;17.30;99.90;;;;;;5072388;28;21149;-82
2022/07/07 08:49:01;;;;;;;3.10;2.80;;;17.30;99.90;;;;;;5073293;28;20396;-80
2022/07/07 08:51:27;;;;;;;3.27;3.07;;;17.40;99.90;;;;;;5080422;28;20411;-83
2022/07/07 08:53:53;;;;;;;3.45;3.25;;;17.40;99.90;;;;;;5086119;28;20387;-81
2022/07/07 08:56:19;;;;;;;4.43;3.38;;;17.50;99.90;;;;;;5084290;28;20411;-82
2022/07/07 08:58:46;;;;;;;3.60;3.30;;;17.50;99.90;;;;;;5085257;28;20728;-82
2022/07/07 09:01:12;;;;;;;3.10;2.90;;;17.60;99.90;;;;;;5085092;28;21171;-81
2022/07/07 09:03:38;;;;;;;3.60;3.30;;;17.80;99.90;;;;;;5083555;28;20462;-82
2022/07/07 09:06:04;;;;;;;4.05;3.75;;;17.80;99.90;;;;;;5076087;28;20380;-81
2022/07/07 09:08:31;;;;;;;4.32;3.63;;;17.70;99.90;;;;;;5073096;28;20399;-81
2022/07/07 09:11:00;;;;;;;4.50;4.20;;;17.70;99.90;;;;;;5071296;28;20415;-82
2022/07/07 09:13:28;;;;;;;4.57;4.18;;;17.80;99.90;;;;;;5070263;28;20388;-82
2022/07/07 09:16:02;;;;;;;4.70;4.30;;;17.80;99.90;;;;;;5070306;28;20412;-82
2022/07/07 09:18:38;;;;;;;4.55;4.25;;;18.00;99.90;;;;;;5053491;28;21271;-81
2022/07/07 09:21:29;;;;;;;4.55;4.22;;;;;;;;;;5071383;28;20434;-80
2022/07/07 09:24:02;;;;;;;4.53;4.05;;;;;;;;;;5067160;28;21025;-80
2022/07/07 09:26:43;;;;;;;4.30;4.00;;;18.90;99.90;;;;;;5072641;28;20877;-81
2022/07/07 09:29:11;;;;;;;4.47;4.07;;;18.90;99.90;;;;;;5073132;28;20373;-82
2022/07/07 09:32:00;;;;;;;4.65;4.25;;;18.90;99.90;;;;;;5072300;28;20832;-81
2022/07/07 09:34:29;;;;;;;4.25;3.88;;;18.90;99.90;;;;;;5071493;28;20392;-82
2022/07/07 09:39:46;;;;;;;4.20;3.90;;;18.90;99.90;;;;;;5071237;28;21811;-83
2022/07/07 09:42:24;;;;;;;5.20;4.80;;;18.90;99.90;;;;;;5069113;28;20419;-84
2022/07/07 09:45:03;;;;;;;5.00;4.60;;;18.80;99.90;;;;;;5065369;28;20428;-82
2022/07/07 09:47:30;;;;;;;5.07;4.68;;;18.80;99.90;;;;;;5053657;28;20434;-82
2022/07/07 09:50:15;;;;;;;5.33;4.93;;;18.60;99.90;;;;;;5071597;28;20379;-82
2022/07/07 09:52:45;;;;;;;5.28;4.90;;;18.50;99.90;;;;;;5071237;28;20874;-81
2022/07/07 09:55:12;;;;;;;6.10;5.50;;;18.40;99.90;;;;;;5071950;28;20376;-81
2022/07/07 09:57:39;;;;;;;5.80;5.40;;;18.30;99.90;;;;;;5068799;28;20780;-82
2022/07/07 10:00:06;;;;;;;5.70;5.30;;;18.30;99.90;;;;;;5070778;28;20404;-80
2022/07/07 10:02:32;;;;;;;5.88;5.38;;;18.30;99.90;;;;;;5071271;28;20408;-80
2022/07/07 10:05:00;;;;;;;5.97;5.38;;;18.30;99.90;;;;;;5072514;28;20898;-80
2022/07/07 10:07:28;;;;;;;6.18;5.68;;;18.10;99.90;;;;;;5072410;28;20457;-81
2022/07/07 10:09:56;;;;;;;5.90;5.43;;;18.10;99.90;;;;;;5074868;28;20528;-80
2022/07/07 10:12:26;;;;;;;5.97;5.50;;;18.20;99.90;;;;;;5076462;28;20436;-81
2022/07/07 10:15:11;;;;;;;5.97;5.45;;;18.00;99.90;;;;;;5075112;28;21222;-82
2022/07/07 10:17:38;;;;;;;5.40;5.00;;;18.10;99.90;;;;;;5075290;28;20395;-80
2022/07/07 10:20:04;;;;;;;5.20;4.80;;;18.10;99.90;;;;;;5074516;28;20415;-79
2022/07/07 10:22:30;;;;;;;5.57;5.18;;;18.10;99.90;;;;;;5075132;28;21151;-79
2022/07/07 10:25:02;;;;;;;5.93;5.40;;;18.00;99.90;;;;;;5077217;28;20542;-80
2022/07/07 10:27:28;;;;;;;5.70;5.30;;;18.00;99.90;;;;;;5079226;28;20714;-81
2022/07/07 10:29:58;;;;;;;5.95;5.45;;;18.10;99.90;;;;;;5078946;28;20432;-80
2022/07/07 10:32:33;;;;;;;4.55;4.15;;;18.30;99.90;;;;;;5076971;28;20420;-81
2022/07/07 10:35:09;;;;;;;5.65;5.15;;;18.40;99.90;;;;;;5076684;28;20388;-80
2022/07/07 10:37:48;;;;;;;5.00;4.70;;;18.70;99.90;;;;;;5078248;28;20420;-79
2022/07/07 10:40:29;;;;;;;4.80;4.50;;;18.80;99.90;;;;;;5077334;28;20438;-80
2022/07/07 10:43:25;;;;;;;5.90;5.40;;;19.00;99.90;;;;;;5075513;28;20395;-80
2022/07/07 10:45:53;;;;;;;5.10;4.80;;;18.70;99.90;;;;;;5075931;28;20472;-79
2022/07/07 10:48:44;;;;;;;5.23;4.80;;;18.60;99.90;;;;;;5076037;28;20742;-80
2022/07/07 10:51:25;;;;;;;5.30;4.93;;;18.70;99.90;;;;;;5074859;28;20408;-81
2022/07/07 10:54:10;;;;;;;4.88;4.57;;;18.80;99.90;;;;;;5076860;28;20455;-80
2022/07/07 10:56:51;;;;;;;5.57;5.07;;;18.70;99.90;;;;;;5084801;28;20376;-80
2022/07/07 10:59:17;;;;;;;5.80;5.30;;;18.80;99.90;;;;;;5090369;28;20754;-81
2022/07/07 11:02:01;;;;;;;5.68;5.22;;;19.00;99.90;;;;;;5089550;28;20384;-81
2022/07/07 11:04:50;;;;;;;5.53;5.03;;;19.10;99.90;;;;;;5091274;28;20413;-82
2022/07/07 11:07:23;;;;;;;5.20;4.80;;;19.30;99.90;;;;;;5090166;28;20933;-81
2022/07/07 11:10:06;;;;;;;4.87;4.57;;;19.40;99.90;;;;;;5087868;28;20453;-82
2022/07/07 11:12:52;;;;;;;6.28;4.75;;;19.50;99.90;;;;;;5089454;28;20391;-80
2022/07/07 11:15:20;;;;;;;5.20;4.63;;;19.70;99.90;;;;;;5090310;28;20564;-82
2022/07/07 11:17:50;;;;;;;4.80;4.40;;;19.80;99.90;;;;;;5088942;28;20882;-82
2022/07/07 11:20:19;;;;;;;5.03;4.57;;;19.90;99.90;;;;;;5085121;28;20482;-81
2022/07/07 11:22:47;;;;;;;3.90;3.60;;;20.10;99.90;;;;;;5090304;28;20505;-80
2022/07/07 11:25:14;;;;;;;3.50;3.30;;;20.20;99.90;;;;;;5100739;28;20371;-81
2022/07/07 11:27:40;;;;;;;3.38;3.08;;;20.60;99.90;;;;;;5087700;28;20783;-83
2022/07/07 11:30:07;;;;;;;3.35;3.05;;;21.00;99.90;;;;;;5089397;28;20390;-81
2022/07/07 11:32:41;;;;;;;4.00;2.80;;;21.30;99.90;;;;;;5102847;28;20509;-83
2022/07/07 11:35:09;;;;;;;4.00;3.53;;;21.30;99.90;;;;;;5094868;28;20379;-84
2022/07/07 11:37:43;;;;;;;3.28;2.97;;;21.20;99.90;;;;;;5084904;28;20389;-82
2022/07/07 11:40:14;;;;;;;3.08;2.88;;;21.30;99.90;;;;;;5091653;28;20489;-82
2022/07/07 11:42:43;;;;;;;3.45;3.00;;;21.40;99.90;;;;;;5086948;28;20395;-83
2022/07/07 11:45:19;;;;;;;4.10;3.13;;;21.40;99.90;;;;;;5081357;28;20458;-83
2022/07/07 11:47:45;;;;;;;3.70;2.90;;;21.40;99.90;;;;;;5079279;28;20455;-83
2022/07/07 11:50:13;;;;;;;2.85;2.63;;;21.50;99.90;;;;;;5079387;28;20376;-81
2022/07/07 11:52:46;;;;;;;3.47;2.60;;;21.70;99.90;;;;;;5084486;28;20371;-82
2022/07/07 11:55:15;;;;;;;3.30;1.83;;;21.80;99.90;;;;;;5084395;28;20383;-80
2022/07/07 11:57:40;;;;;;;4.07;2.00;;;21.70;99.90;;;;;;5081220;28;20434;-82
2022/07/07 12:00:13;;;;;;;1.85;1.75;;;21.70;99.90;;;;;;5078691;28;20480;-82
2022/07/07 12:02:39;;;;;;;2.10;2.00;;;21.60;99.90;;;;;;5079251;28;20506;-83
2022/07/07 12:05:06;;;;;;;2.27;2.07;;;21.50;99.90;;;;;;5079504;28;20760;-82
2022/07/07 12:07:32;;;;;;;2.50;1.90;;;21.50;99.90;;;;;;5082447;28;20380;-83
2022/07/07 12:09:58;;;;;;;2.10;1.90;;;21.50;99.90;;;;;;5083667;28;20392;-83
2022/07/07 12:12:25;;;;;;;2.70;1.90;;;21.50;99.90;;;;;;5080355;28;20407;-83
2022/07/07 12:14:51;;;;;;;2.15;2.03;;;21.40;99.90;;;;;;5082330;28;20375;-83
2022/07/07 12:33:02;;;;;;;2.00;1.80;;;20.60;99.90;;;;;;5351043;22;20524;-82
2022/07/07 12:35:30;;;;;;;1.70;1.60;;;20.70;99.90;;;;;;5016041;28;20370;-80
2022/07/07 12:37:57;;;;;;;1.70;1.60;;;20.90;99.90;;;;;;5022100;28;20394;-80
2022/07/07 12:40:23;;;;;;;1.63;1.52;;;21.00;99.90;;;;;;5016886;28;20909;-79
2022/07/07 12:42:49;;;;;;;2.05;1.85;;;21.20;99.90;;;;;;5021327;28;20409;-78
2022/07/07 12:45:18;;;;;;;2.05;1.90;;;21.40;99.90;;;;;;5010730;28;20744;-81
2022/07/07 12:47:53;;;;;;;1.70;1.60;;;21.50;99.90;;;;;;5016096;28;20612;-80
2022/07/07 12:50:24;;;;;;;1.50;1.40;;;21.80;99.90;;;;;;5018241;28;20411;-81
2022/07/07 12:52:54;;;;;;;1.40;1.30;;;22.10;99.90;;;;;;5017488;28;20381;-80
2022/07/07 12:55:20;;;;;;;1.20;1.10;;;22.40;99.90;;;;;;5016781;28;20405;-78
2022/07/07 12:57:46;;;;;;;2.00;1.00;;;22.70;99.90;;;;;;5015045;28;20824;-80
2022/07/07 13:00:26;;;;;;;1.25;1.15;;;22.80;99.90;;;;;;5018262;28;20416;-79
2022/07/07 13:02:52;;;;;;;0.90;0.90;;;22.70;99.90;;;;;;5018189;28;20390;-81
2022/07/07 13:05:18;;;;;;;1.33;1.10;;;22.80;99.90;;;;;;5014249;28;20909;-81
2022/07/07 13:07:44;;;;;;;1.42;1.10;;;23.00;99.90;;;;;;5009426;28;20393;-82
2022/07/07 13:10:10;;;;;;;0.93;0.90;;;23.40;99.90;;;;;;5015126;28;20390;-81